Scholls, Oregon
Current Conditions -  °F | °C
As of 3:53 PM on Saturday 25 Oct 2014 (Local Time) from KHIO Reporting Station
Moderate Rain Moderate Rain  
Wind Chill: 59°   Ceiling: 8000
Heat Index: 59°   Visibility: 5mi
Dew Point: 54°   Wind: 22mph
Humidity: 83%   Direction: 180°S
Pressure: 29.38"   Gusts: 41mph
Location:  45.4461°N, 122.983°W
Report Text: KHIO 252253Z 18019G36KT 5SM RA FEW037 SCT050 OVC080 15/12 A2938 RMK AO2 PK WND 16038/2236 RAE06B25 SLP947 P0005 T01500122
Loading
Personal Weather Stations






























Interactive Weather Map
Tropical Storm Tracking
New forecast layout! Learn more

10-Day Weather Forecast

Advertisements
Track Severe Weather on mobile